sensor_id;sensor_type;location;lat;lon;timestamp;P1;durP1;ratioP1;P2;durP2;ratioP2
64820;SDS011;51256;55.654;37.264;2022-07-18T00:00:04;5.50;;;3.80;;
64820;SDS011;51256;55.654;37.264;2022-07-18T00:02:32;5.57;;;3.70;;
64820;SDS011;51256;55.654;37.264;2022-07-18T00:04:57;10.40;;;4.32;;
64820;SDS011;51256;55.654;37.264;2022-07-18T00:07:23;9.30;;;3.80;;
64820;SDS011;51256;55.654;37.264;2022-07-18T00:09:48;11.25;;;6.03;;
64820;SDS011;51256;55.654;37.264;2022-07-18T00:12:14;12.57;;;6.60;;
64820;SDS011;51256;55.654;37.264;2022-07-18T00:14:40;7.80;;;4.95;;
64820;SDS011;51256;55.654;37.264;2022-07-18T00:17:06;7.68;;;5.00;;
64820;SDS011;51256;55.654;37.264;2022-07-18T00:19:32;9.80;;;5.05;;
64820;SDS011;51256;55.654;37.264;2022-07-18T00:21:58;13.18;;;4.88;;
64820;SDS011;51256;55.654;37.264;2022-07-18T00:24:24;8.38;;;4.65;;
64820;SDS011;51256;55.654;37.264;2022-07-18T00:26:49;9.88;;;5.15;;
64820;SDS011;51256;55.654;37.264;2022-07-18T00:29:15;12.07;;;5.43;;
64820;SDS011;51256;55.654;37.264;2022-07-18T00:31:40;10.52;;;5.13;;
64820;SDS011;51256;55.654;37.264;2022-07-18T00:34:06;7.63;;;5.20;;
64820;SDS011;51256;55.654;37.264;2022-07-18T00:36:31;8.77;;;5.15;;
64820;SDS011;51256;55.654;37.264;2022-07-18T00:38:57;10.48;;;5.10;;
64820;SDS011;51256;55.654;37.264;2022-07-18T00:41:23;7.13;;;4.78;;
64820;SDS011;51256;55.654;37.264;2022-07-18T00:43:49;8.95;;;5.00;;
64820;SDS011;51256;55.654;37.264;2022-07-18T00:46:15;8.07;;;4.97;;
64820;SDS011;51256;55.654;37.264;2022-07-18T00:48:41;9.40;;;5.10;;
64820;SDS011;51256;55.654;37.264;2022-07-18T00:51:08;14.50;;;8.63;;
64820;SDS011;51256;55.654;37.264;2022-07-18T00:53:34;15.77;;;9.13;;
64820;SDS011;51256;55.654;37.264;2022-07-18T00:56:02;7.90;;;5.60;;
64820;SDS011;51256;55.654;37.264;2022-07-18T00:58:28;8.07;;;5.68;;
64820;SDS011;51256;55.654;37.264;2022-07-18T01:00:55;14.98;;;6.00;;
64820;SDS011;51256;55.654;37.264;2022-07-18T01:03:40;9.63;;;5.68;;
64820;SDS011;51256;55.654;37.264;2022-07-18T01:06:05;9.00;;;5.78;;
64820;SDS011;51256;55.654;37.264;2022-07-18T01:08:31;12.32;;;7.55;;
64820;SDS011;51256;55.654;37.264;2022-07-18T01:10:58;12.13;;;6.15;;
64820;SDS011;51256;55.654;37.264;2022-07-18T01:13:23;12.05;;;6.70;;
64820;SDS011;51256;55.654;37.264;2022-07-18T01:15:49;8.18;;;5.50;;
64820;SDS011;51256;55.654;37.264;2022-07-18T01:18:15;7.50;;;4.47;;
64820;SDS011;51256;55.654;37.264;2022-07-18T01:20:41;8.00;;;4.43;;
64820;SDS011;51256;55.654;37.264;2022-07-18T01:23:07;6.18;;;4.00;;
64820;SDS011;51256;55.654;37.264;2022-07-18T01:25:32;8.35;;;3.88;;
64820;SDS011;51256;55.654;37.264;2022-07-18T01:27:58;7.22;;;4.13;;
64820;SDS011;51256;55.654;37.264;2022-07-18T01:30:24;7.47;;;3.97;;
64820;SDS011;51256;55.654;37.264;2022-07-18T01:32:59;5.78;;;4.10;;
64820;SDS011;51256;55.654;37.264;2022-07-18T01:35:27;5.45;;;3.97;;
64820;SDS011;51256;55.654;37.264;2022-07-18T01:37:53;5.93;;;4.13;;
64820;SDS011;51256;55.654;37.264;2022-07-18T01:40:20;6.75;;;3.63;;
64820;SDS011;51256;55.654;37.264;2022-07-18T01:42:46;5.60;;;4.10;;
64820;SDS011;51256;55.654;37.264;2022-07-18T01:45:11;5.72;;;3.80;;
64820;SDS011;51256;55.654;37.264;2022-07-18T01:47:37;6.00;;;3.60;;
64820;SDS011;51256;55.654;37.264;2022-07-18T01:50:03;7.78;;;3.60;;
64820;SDS011;51256;55.654;37.264;2022-07-18T01:52:30;4.25;;;3.25;;
64820;SDS011;51256;55.654;37.264;2022-07-18T01:54:55;5.63;;;3.65;;
64820;SDS011;51256;55.654;37.264;2022-07-18T01:57:21;5.57;;;3.80;;
64820;SDS011;51256;55.654;37.264;2022-07-18T01:59:46;6.03;;;3.92;;
64820;SDS011;51256;55.654;37.264;2022-07-18T02:02:12;8.07;;;3.97;;
64820;SDS011;51256;55.654;37.264;2022-07-18T02:04:37;5.55;;;3.65;;
64820;SDS011;51256;55.654;37.264;2022-07-18T02:07:22;7.07;;;3.80;;
64820;SDS011;51256;55.654;37.264;2022-07-18T02:09:47;6.03;;;4.20;;
64820;SDS011;51256;55.654;37.264;2022-07-18T02:12:14;9.90;;;4.78;;
64820;SDS011;51256;55.654;37.264;2022-07-18T02:14:39;10.85;;;5.07;;
64820;SDS011;51256;55.654;37.264;2022-07-18T02:17:05;9.60;;;5.25;;
64820;SDS011;51256;55.654;37.264;2022-07-18T02:19:30;8.95;;;5.05;;
64820;SDS011;51256;55.654;37.264;2022-07-18T02:21:56;17.02;;;5.60;;
64820;SDS011;51256;55.654;37.264;2022-07-18T02:24:21;9.38;;;4.43;;
64820;SDS011;51256;55.654;37.264;2022-07-18T02:26:47;11.45;;;4.40;;
64820;SDS011;51256;55.654;37.264;2022-07-18T02:29:12;11.20;;;5.20;;
64820;SDS011;51256;55.654;37.264;2022-07-18T02:31:38;8.40;;;4.20;;
64820;SDS011;51256;55.654;37.264;2022-07-18T02:34:03;6.70;;;4.13;;
64820;SDS011;51256;55.654;37.264;2022-07-18T02:36:38;6.80;;;3.50;;
64820;SDS011;51256;55.654;37.264;2022-07-18T02:39:05;5.50;;;3.30;;
64820;SDS011;51256;55.654;37.264;2022-07-18T02:41:32;6.25;;;3.97;;
64820;SDS011;51256;55.654;37.264;2022-07-18T02:43:58;6.18;;;4.00;;
64820;SDS011;51256;55.654;37.264;2022-07-18T02:46:24;5.75;;;3.38;;
64820;SDS011;51256;55.654;37.264;2022-07-18T02:48:50;5.47;;;3.63;;
64820;SDS011;51256;55.654;37.264;2022-07-18T02:51:15;6.40;;;3.17;;
64820;SDS011;51256;55.654;37.264;2022-07-18T02:53:41;6.70;;;3.50;;
64820;SDS011;51256;55.654;37.264;2022-07-18T02:56:06;6.15;;;3.65;;
64820;SDS011;51256;55.654;37.264;2022-07-18T02:58:32;9.50;;;5.78;;
64820;SDS011;51256;55.654;37.264;2022-07-18T03:00:58;10.25;;;6.43;;
64820;SDS011;51256;55.654;37.264;2022-07-18T03:03:24;11.65;;;5.75;;
64820;SDS011;51256;55.654;37.264;2022-07-18T03:05:49;10.23;;;4.90;;
64820;SDS011;51256;55.654;37.264;2022-07-18T03:08:15;8.07;;;5.40;;
64820;SDS011;51256;55.654;37.264;2022-07-18T03:10:41;13.68;;;5.47;;
64820;SDS011;51256;55.654;37.264;2022-07-18T03:13:07;8.77;;;5.25;;
64820;SDS011;51256;55.654;37.264;2022-07-18T03:15:32;9.95;;;4.82;;
64820;SDS011;51256;55.654;37.264;2022-07-18T03:17:58;8.30;;;3.72;;
64820;SDS011;51256;55.654;37.264;2022-07-18T03:20:24;5.00;;;3.70;;
64820;SDS011;51256;55.654;37.264;2022-07-18T03:22:49;4.82;;;3.70;;
64820;SDS011;51256;55.654;37.264;2022-07-18T03:25:15;7.40;;;3.80;;
64820;SDS011;51256;55.654;37.264;2022-07-18T03:27:40;5.40;;;3.70;;
64820;SDS011;51256;55.654;37.264;2022-07-18T03:30:06;7.22;;;3.90;;
64820;SDS011;51256;55.654;37.264;2022-07-18T03:32:32;11.55;;;4.60;;
64820;SDS011;51256;55.654;37.264;2022-07-18T03:34:58;12.05;;;5.00;;
64820;SDS011;51256;55.654;37.264;2022-07-18T03:37:24;19.80;;;12.80;;
64820;SDS011;51256;55.654;37.264;2022-07-18T03:39:50;23.63;;;11.70;;
64820;SDS011;51256;55.654;37.264;2022-07-18T03:42:15;15.70;;;9.32;;
64820;SDS011;51256;55.654;37.264;2022-07-18T03:44:41;8.38;;;4.38;;
64820;SDS011;51256;55.654;37.264;2022-07-18T03:47:06;7.10;;;4.28;;
64820;SDS011;51256;55.654;37.264;2022-07-18T03:49:32;22.60;;;14.50;;
64820;SDS011;51256;55.654;37.264;2022-07-18T03:51:57;19.42;;;11.75;;
64820;SDS011;51256;55.654;37.264;2022-07-18T03:54:23;28.52;;;19.00;;
64820;SDS011;51256;55.654;37.264;2022-07-18T03:56:49;16.77;;;9.57;;
64820;SDS011;51256;55.654;37.264;2022-07-18T03:59:15;16.98;;;9.02;;
64820;SDS011;51256;55.654;37.264;2022-07-18T04:01:41;12.10;;;6.10;;
64820;SDS011;51256;55.654;37.264;2022-07-18T04:04:06;13.10;;;7.28;;
64820;SDS011;51256;55.654;37.264;2022-07-18T04:06:32;12.98;;;7.50;;
64820;SDS011;51256;55.654;37.264;2022-07-18T04:08:57;5.72;;;3.85;;
64820;SDS011;51256;55.654;37.264;2022-07-18T04:11:22;6.55;;;3.50;;
64820;SDS011;51256;55.654;37.264;2022-07-18T04:13:52;4.85;;;3.22;;
64820;SDS011;51256;55.654;37.264;2022-07-18T04:16:18;7.57;;;3.15;;
64820;SDS011;51256;55.654;37.264;2022-07-18T04:18:44;8.65;;;3.05;;
64820;SDS011;51256;55.654;37.264;2022-07-18T04:21:09;5.90;;;3.40;;
64820;SDS011;51256;55.654;37.264;2022-07-18T04:23:35;4.03;;;2.63;;
64820;SDS011;51256;55.654;37.264;2022-07-18T04:26:00;5.38;;;2.88;;
64820;SDS011;51256;55.654;37.264;2022-07-18T04:28:29;4.70;;;2.92;;
64820;SDS011;51256;55.654;37.264;2022-07-18T04:30:54;5.40;;;3.03;;
64820;SDS011;51256;55.654;37.264;2022-07-18T04:33:20;4.47;;;2.78;;
64820;SDS011;51256;55.654;37.264;2022-07-18T04:35:45;6.95;;;3.08;;
64820;SDS011;51256;55.654;37.264;2022-07-18T04:38:12;4.63;;;3.15;;
64820;SDS011;51256;55.654;37.264;2022-07-18T04:40:38;6.03;;;3.40;;
64820;SDS011;51256;55.654;37.264;2022-07-18T04:43:04;5.07;;;3.17;;
64820;SDS011;51256;55.654;37.264;2022-07-18T04:45:29;4.93;;;2.83;;
64820;SDS011;51256;55.654;37.264;2022-07-18T04:47:55;5.60;;;3.30;;
64820;SDS011;51256;55.654;37.264;2022-07-18T04:50:21;9.07;;;3.45;;
64820;SDS011;51256;55.654;37.264;2022-07-18T04:52:48;6.30;;;3.40;;
64820;SDS011;51256;55.654;37.264;2022-07-18T04:55:15;7.13;;;3.65;;
64820;SDS011;51256;55.654;37.264;2022-07-18T04:57:42;11.15;;;3.20;;
64820;SDS011;51256;55.654;37.264;2022-07-18T05:00:12;5.25;;;2.97;;
64820;SDS011;51256;55.654;37.264;2022-07-18T05:02:40;8.55;;;3.90;;
64820;SDS011;51256;55.654;37.264;2022-07-18T05:05:07;8.18;;;3.50;;
64820;SDS011;51256;55.654;37.264;2022-07-18T05:07:33;10.07;;;3.53;;
64820;SDS011;51256;55.654;37.264;2022-07-18T05:09:59;9.10;;;3.38;;
64820;SDS011;51256;55.654;37.264;2022-07-18T05:12:25;5.72;;;3.33;;
64820;SDS011;51256;55.654;37.264;2022-07-18T05:14:50;4.75;;;3.25;;
64820;SDS011;51256;55.654;37.264;2022-07-18T05:17:16;7.53;;;3.10;;
64820;SDS011;51256;55.654;37.264;2022-07-18T05:19:42;7.93;;;3.80;;
64820;SDS011;51256;55.654;37.264;2022-07-18T05:22:08;7.50;;;3.72;;
64820;SDS011;51256;55.654;37.264;2022-07-18T05:24:33;8.13;;;3.58;;
64820;SDS011;51256;55.654;37.264;2022-07-18T05:26:59;9.48;;;4.15;;
64820;SDS011;51256;55.654;37.264;2022-07-18T05:29:25;6.45;;;3.80;;
64820;SDS011;51256;55.654;37.264;2022-07-18T05:31:50;8.48;;;3.90;;
64820;SDS011;51256;55.654;37.264;2022-07-18T05:34:16;8.30;;;4.40;;
64820;SDS011;51256;55.654;37.264;2022-07-18T05:36:41;6.97;;;3.75;;
64820;SDS011;51256;55.654;37.264;2022-07-18T05:39:07;10.50;;;4.30;;
64820;SDS011;51256;55.654;37.264;2022-07-18T05:41:34;12.88;;;4.25;;
64820;SDS011;51256;55.654;37.264;2022-07-18T05:43:59;9.82;;;4.07;;
64820;SDS011;51256;55.654;37.264;2022-07-18T05:46:25;12.73;;;5.32;;
64820;SDS011;51256;55.654;37.264;2022-07-18T05:48:50;13.85;;;5.40;;
64820;SDS011;51256;55.654;37.264;2022-07-18T05:51:17;15.30;;;4.25;;
64820;SDS011;51256;55.654;37.264;2022-07-18T05:53:43;8.25;;;4.28;;
64820;SDS011;51256;55.654;37.264;2022-07-18T05:56:09;12.10;;;3.67;;
64820;SDS011;51256;55.654;37.264;2022-07-18T05:58:35;9.02;;;3.97;;
64820;SDS011;51256;55.654;37.264;2022-07-18T06:01:00;9.35;;;4.07;;
64820;SDS011;51256;55.654;37.264;2022-07-18T06:03:26;5.93;;;3.80;;
64820;SDS011;51256;55.654;37.264;2022-07-18T06:05:51;13.00;;;6.10;;
64820;SDS011;51256;55.654;37.264;2022-07-18T06:08:16;12.45;;;5.20;;
64820;SDS011;51256;55.654;37.264;2022-07-18T06:10:42;13.43;;;4.65;;
64820;SDS011;51256;55.654;37.264;2022-07-18T06:13:08;12.30;;;4.05;;
64820;SDS011;51256;55.654;37.264;2022-07-18T06:15:33;8.38;;;4.10;;
64820;SDS011;51256;55.654;37.264;2022-07-18T06:17:59;9.82;;;4.30;;
64820;SDS011;51256;55.654;37.264;2022-07-18T06:20:24;11.40;;;4.22;;
64820;SDS011;51256;55.654;37.264;2022-07-18T06:22:50;10.80;;;4.22;;
64820;SDS011;51256;55.654;37.264;2022-07-18T06:25:15;12.00;;;4.18;;
64820;SDS011;51256;55.654;37.264;2022-07-18T06:27:41;14.45;;;4.15;;
64820;SDS011;51256;55.654;37.264;2022-07-18T06:30:07;10.55;;;4.32;;
64820;SDS011;51256;55.654;37.264;2022-07-18T06:32:34;11.07;;;5.00;;
64820;SDS011;51256;55.654;37.264;2022-07-18T06:35:00;9.48;;;4.40;;
64820;SDS011;51256;55.654;37.264;2022-07-18T06:37:26;16.98;;;5.45;;
64820;SDS011;51256;55.654;37.264;2022-07-18T06:39:52;13.65;;;4.30;;
64820;SDS011;51256;55.654;37.264;2022-07-18T06:42:17;18.45;;;5.63;;
64820;SDS011;51256;55.654;37.264;2022-07-18T06:44:43;14.95;;;4.60;;
64820;SDS011;51256;55.654;37.264;2022-07-18T06:47:08;13.65;;;4.55;;
64820;SDS011;51256;55.654;37.264;2022-07-18T06:49:34;15.40;;;4.90;;
64820;SDS011;51256;55.654;37.264;2022-07-18T06:51:59;8.75;;;4.45;;
64820;SDS011;51256;55.654;37.264;2022-07-18T06:54:26;11.23;;;4.30;;
64820;SDS011;51256;55.654;37.264;2022-07-18T06:56:53;10.57;;;4.18;;
64820;SDS011;51256;55.654;37.264;2022-07-18T06:59:20;9.85;;;4.10;;
64820;SDS011;51256;55.654;37.264;2022-07-18T07:01:45;5.93;;;3.85;;
64820;SDS011;51256;55.654;37.264;2022-07-18T07:04:11;9.50;;;4.57;;
64820;SDS011;51256;55.654;37.264;2022-07-18T07:06:36;12.38;;;4.60;;
64820;SDS011;51256;55.654;37.264;2022-07-18T07:09:04;9.18;;;3.95;;
64820;SDS011;51256;55.654;37.264;2022-07-18T07:11:30;8.52;;;4.10;;
64820;SDS011;51256;55.654;37.264;2022-07-18T07:13:56;9.07;;;4.28;;
64820;SDS011;51256;55.654;37.264;2022-07-18T07:16:21;7.47;;;4.88;;
64820;SDS011;51256;55.654;37.264;2022-07-18T07:18:47;9.18;;;5.03;;
64820;SDS011;51256;55.654;37.264;2022-07-18T07:21:12;9.73;;;4.50;;
64820;SDS011;51256;55.654;37.264;2022-07-18T07:23:38;8.13;;;4.50;;
64820;SDS011;51256;55.654;37.264;2022-07-18T07:26:05;8.45;;;4.65;;
64820;SDS011;51256;55.654;37.264;2022-07-18T07:28:31;7.47;;;4.35;;
64820;SDS011;51256;55.654;37.264;2022-07-18T07:30:56;8.07;;;4.15;;
64820;SDS011;51256;55.654;37.264;2022-07-18T07:33:22;12.77;;;4.63;;
64820;SDS011;51256;55.654;37.264;2022-07-18T07:35:47;9.15;;;4.60;;
64820;SDS011;51256;55.654;37.264;2022-07-18T07:38:13;10.88;;;4.25;;
64820;SDS011;51256;55.654;37.264;2022-07-18T07:43:09;5.78;;;4.10;;
64820;SDS011;51256;55.654;37.264;2022-07-18T07:45:36;7.75;;;3.80;;
64820;SDS011;51256;55.654;37.264;2022-07-18T07:48:03;10.32;;;3.88;;
64820;SDS011;51256;55.654;37.264;2022-07-18T07:50:29;6.03;;;3.75;;
64820;SDS011;51256;55.654;37.264;2022-07-18T07:52:55;5.65;;;3.55;;
64820;SDS011;51256;55.654;37.264;2022-07-18T07:55:21;9.07;;;4.10;;
64820;SDS011;51256;55.654;37.264;2022-07-18T07:57:47;7.60;;;3.95;;
64820;SDS011;51256;55.654;37.264;2022-07-18T08:00:12;6.88;;;3.83;;
64820;SDS011;51256;55.654;37.264;2022-07-18T08:02:49;7.50;;;3.35;;
64820;SDS011;51256;55.654;37.264;2022-07-18T08:05:17;8.00;;;4.23;;
64820;SDS011;51256;55.654;37.264;2022-07-18T08:07:43;6.90;;;3.55;;
64820;SDS011;51256;55.654;37.264;2022-07-18T08:10:08;10.40;;;6.25;;
64820;SDS011;51256;55.654;37.264;2022-07-18T08:12:34;7.97;;;3.80;;
64820;SDS011;51256;55.654;37.264;2022-07-18T08:14:59;8.23;;;4.15;;
64820;SDS011;51256;55.654;37.264;2022-07-18T08:17:25;5.93;;;3.50;;
64820;SDS011;51256;55.654;37.264;2022-07-18T08:19:50;6.45;;;3.60;;
64820;SDS011;51256;55.654;37.264;2022-07-18T08:22:16;11.20;;;4.20;;
64820;SDS011;51256;55.654;37.264;2022-07-18T08:24:46;7.22;;;3.72;;
64820;SDS011;51256;55.654;37.264;2022-07-18T08:27:11;5.55;;;2.70;;
64820;SDS011;51256;55.654;37.264;2022-07-18T08:29:36;7.70;;;3.58;;
64820;SDS011;51256;55.654;37.264;2022-07-18T08:32:02;8.45;;;3.55;;
64820;SDS011;51256;55.654;37.264;2022-07-18T08:34:28;7.28;;;4.10;;
64820;SDS011;51256;55.654;37.264;2022-07-18T08:36:53;8.00;;;3.55;;
64820;SDS011;51256;55.654;37.264;2022-07-18T08:39:19;13.10;;;3.30;;
64820;SDS011;51256;55.654;37.264;2022-07-18T08:41:44;4.25;;;2.22;;
64820;SDS011;51256;55.654;37.264;2022-07-18T08:44:13;6.75;;;3.13;;
64820;SDS011;51256;55.654;37.264;2022-07-18T08:46:39;6.97;;;2.88;;
64820;SDS011;51256;55.654;37.264;2022-07-18T08:49:08;7.50;;;3.90;;
64820;SDS011;51256;55.654;37.264;2022-07-18T08:51:37;7.55;;;3.97;;
64820;SDS011;51256;55.654;37.264;2022-07-18T08:54:02;7.07;;;3.28;;
64820;SDS011;51256;55.654;37.264;2022-07-18T08:56:28;6.93;;;3.65;;
64820;SDS011;51256;55.654;37.264;2022-07-18T08:58:54;7.32;;;4.10;;
64820;SDS011;51256;55.654;37.264;2022-07-18T09:01:19;9.38;;;3.17;;
64820;SDS011;51256;55.654;37.264;2022-07-18T09:03:45;4.53;;;2.85;;
64820;SDS011;51256;55.654;37.264;2022-07-18T09:06:40;7.97;;;3.08;;
64820;SDS011;51256;55.654;37.264;2022-07-18T09:09:08;6.28;;;2.80;;
64820;SDS011;51256;55.654;37.264;2022-07-18T09:11:36;5.30;;;2.63;;
64820;SDS011;51256;55.654;37.264;2022-07-18T09:14:02;7.03;;;2.88;;
64820;SDS011;51256;55.654;37.264;2022-07-18T09:16:27;5.38;;;2.88;;
64820;SDS011;51256;55.654;37.264;2022-07-18T09:18:53;4.60;;;2.78;;
64820;SDS011;51256;55.654;37.264;2022-07-18T09:21:20;7.03;;;3.28;;
64820;SDS011;51256;55.654;37.264;2022-07-18T09:23:51;8.70;;;3.13;;
64820;SDS011;51256;55.654;37.264;2022-07-18T09:29:03;5.80;;;2.97;;
64820;SDS011;51256;55.654;37.264;2022-07-18T09:31:29;7.07;;;3.05;;
64820;SDS011;51256;55.654;37.264;2022-07-18T09:33:57;8.48;;;3.45;;
64820;SDS011;51256;55.654;37.264;2022-07-18T09:36:24;6.85;;;2.63;;
64820;SDS011;51256;55.654;37.264;2022-07-18T09:38:51;7.90;;;3.15;;
64820;SDS011;51256;55.654;37.264;2022-07-18T09:41:21;8.38;;;3.60;;
64820;SDS011;51256;55.654;37.264;2022-07-18T09:43:48;16.15;;;4.13;;
64820;SDS011;51256;55.654;37.264;2022-07-18T09:46:13;15.77;;;4.63;;
64820;SDS011;51256;55.654;37.264;2022-07-18T09:48:39;10.35;;;4.10;;
64820;SDS011;51256;55.654;37.264;2022-07-18T09:51:05;10.85;;;3.97;;
64820;SDS011;51256;55.654;37.264;2022-07-18T09:58:31;7.63;;;3.03;;
64820;SDS011;51256;55.654;37.264;2022-07-18T10:00:59;5.88;;;2.90;;
64820;SDS011;51256;55.654;37.264;2022-07-18T10:03:26;7.18;;;3.20;;
64820;SDS011;51256;55.654;37.264;2022-07-18T10:05:53;9.10;;;2.85;;
64820;SDS011;51256;55.654;37.264;2022-07-18T10:08:21;5.18;;;2.92;;
64820;SDS011;51256;55.654;37.264;2022-07-18T10:10:49;7.20;;;3.35;;
64820;SDS011;51256;55.654;37.264;2022-07-18T10:13:16;5.72;;;2.95;;
64820;SDS011;51256;55.654;37.264;2022-07-18T10:15:45;8.85;;;5.47;;
64820;SDS011;51256;55.654;37.264;2022-07-18T10:18:15;12.52;;;6.18;;
64820;SDS011;51256;55.654;37.264;2022-07-18T10:20:46;8.60;;;3.05;;
64820;SDS011;51256;55.654;37.264;2022-07-18T10:26:05;8.70;;;3.17;;
64820;SDS011;51256;55.654;37.264;2022-07-18T10:28:32;5.10;;;3.00;;
64820;SDS011;51256;55.654;37.264;2022-07-18T10:31:14;10.13;;;3.30;;
64820;SDS011;51256;55.654;37.264;2022-07-18T10:33:44;5.70;;;3.13;;
64820;SDS011;51256;55.654;37.264;2022-07-18T10:36:15;5.03;;;3.15;;
64820;SDS011;51256;55.654;37.264;2022-07-18T10:41:29;6.78;;;3.03;;
64820;SDS011;51256;55.654;37.264;2022-07-18T10:43:55;6.90;;;3.10;;
64820;SDS011;51256;55.654;37.264;2022-07-18T10:46:20;5.68;;;2.75;;
64820;SDS011;51256;55.654;37.264;2022-07-18T10:51:15;5.97;;;2.70;;
64820;SDS011;51256;55.654;37.264;2022-07-18T10:58:59;3.85;;;2.70;;
64820;SDS011;51256;55.654;37.264;2022-07-18T11:01:39;7.35;;;4.18;;
64820;SDS011;51256;55.654;37.264;2022-07-18T11:04:33;6.50;;;2.55;;
64820;SDS011;51256;55.654;37.264;2022-07-18T11:07:11;4.30;;;2.53;;
64820;SDS011;51256;55.654;37.264;2022-07-18T11:15:01;9.40;;;3.33;;
64820;SDS011;51256;55.654;37.264;2022-07-18T11:20:26;4.60;;;3.00;;
64820;SDS011;51256;55.654;37.264;2022-07-18T11:22:52;5.05;;;2.80;;
64820;SDS011;51256;55.654;37.264;2022-07-18T11:25:18;5.65;;;3.08;;
64820;SDS011;51256;55.654;37.264;2022-07-18T11:27:44;4.60;;;2.88;;
64820;SDS011;51256;55.654;37.264;2022-07-18T11:30:10;5.15;;;2.90;;
64820;SDS011;51256;55.654;37.264;2022-07-18T11:32:41;6.18;;;3.10;;
64820;SDS011;51256;55.654;37.264;2022-07-18T11:35:07;10.75;;;3.50;;
64820;SDS011;51256;55.654;37.264;2022-07-18T11:37:33;7.28;;;3.28;;
64820;SDS011;51256;55.654;37.264;2022-07-18T11:40:06;9.85;;;3.50;;
64820;SDS011;51256;55.654;37.264;2022-07-18T11:42:37;7.25;;;3.95;;
64820;SDS011;51256;55.654;37.264;2022-07-18T11:47:29;9.35;;;3.85;;
64820;SDS011;51256;55.654;37.264;2022-07-18T11:49:55;8.23;;;4.00;;
64820;SDS011;51256;55.654;37.264;2022-07-18T11:52:21;5.65;;;3.53;;
64820;SDS011;51256;55.654;37.264;2022-07-18T11:54:47;7.20;;;3.72;;
64820;SDS011;51256;55.654;37.264;2022-07-18T11:57:13;7.47;;;3.47;;
64820;SDS011;51256;55.654;37.264;2022-07-18T11:59:50;7.93;;;4.10;;
64820;SDS011;51256;55.654;37.264;2022-07-18T12:02:15;9.23;;;3.85;;
64820;SDS011;51256;55.654;37.264;2022-07-18T12:04:41;6.80;;;3.30;;
64820;SDS011;51256;55.654;37.264;2022-07-18T12:07:25;8.07;;;5.07;;
64820;SDS011;51256;55.654;37.264;2022-07-18T12:09:51;6.97;;;4.20;;
64820;SDS011;51256;55.654;37.264;2022-07-18T12:12:19;6.60;;;3.75;;
64820;SDS011;51256;55.654;37.264;2022-07-18T12:14:53;5.77;;;3.83;;
64820;SDS011;51256;55.654;37.264;2022-07-18T12:17:20;8.20;;;4.00;;
64820;SDS011;51256;55.654;37.264;2022-07-18T12:19:45;10.27;;;5.28;;
64820;SDS011;51256;55.654;37.264;2022-07-18T12:22:12;8.38;;;5.60;;
64820;SDS011;51256;55.654;37.264;2022-07-18T12:24:54;10.77;;;6.57;;
64820;SDS011;51256;55.654;37.264;2022-07-18T12:27:22;14.73;;;7.80;;
64820;SDS011;51256;55.654;37.264;2022-07-18T12:30:02;11.68;;;6.13;;
64820;SDS011;51256;55.654;37.264;2022-07-18T12:35:13;8.18;;;4.90;;
64820;SDS011;51256;55.654;37.264;2022-07-18T12:37:50;5.38;;;3.90;;
64820;SDS011;51256;55.654;37.264;2022-07-18T12:40:42;7.97;;;3.90;;
64820;SDS011;51256;55.654;37.264;2022-07-18T12:43:31;6.43;;;4.22;;
64820;SDS011;51256;55.654;37.264;2022-07-18T12:45:56;5.53;;;3.33;;
64820;SDS011;51256;55.654;37.264;2022-07-18T12:48:22;4.95;;;3.05;;
64820;SDS011;51256;55.654;37.264;2022-07-18T12:50:55;5.10;;;3.00;;
64820;SDS011;51256;55.654;37.264;2022-07-18T12:53:25;5.30;;;3.30;;
64820;SDS011;51256;55.654;37.264;2022-07-18T12:55:52;7.50;;;3.25;;
64820;SDS011;51256;55.654;37.264;2022-07-18T12:58:19;3.90;;;2.83;;
64820;SDS011;51256;55.654;37.264;2022-07-18T13:00:45;5.07;;;3.03;;
64820;SDS011;51256;55.654;37.264;2022-07-18T13:03:11;4.65;;;3.17;;
64820;SDS011;51256;55.654;37.264;2022-07-18T13:05:37;5.00;;;3.38;;
64820;SDS011;51256;55.654;37.264;2022-07-18T13:08:03;9.02;;;3.20;;
64820;SDS011;51256;55.654;37.264;2022-07-18T13:10:28;7.10;;;3.80;;
64820;SDS011;51256;55.654;37.264;2022-07-18T13:12:54;6.18;;;3.10;;
64820;SDS011;51256;55.654;37.264;2022-07-18T13:15:19;7.07;;;3.33;;
64820;SDS011;51256;55.654;37.264;2022-07-18T13:17:46;6.13;;;3.50;;
64820;SDS011;51256;55.654;37.264;2022-07-18T13:20:14;6.00;;;3.40;;
64820;SDS011;51256;55.654;37.264;2022-07-18T13:22:40;5.47;;;3.30;;
64820;SDS011;51256;55.654;37.264;2022-07-18T13:25:06;5.38;;;2.67;;
64820;SDS011;51256;55.654;37.264;2022-07-18T13:27:34;7.72;;;3.53;;
64820;SDS011;51256;55.654;37.264;2022-07-18T13:30:01;6.20;;;3.80;;
64820;SDS011;51256;55.654;37.264;2022-07-18T13:32:28;6.97;;;4.05;;
64820;SDS011;51256;55.654;37.264;2022-07-18T13:34:54;8.68;;;4.70;;
64820;SDS011;51256;55.654;37.264;2022-07-18T13:37:20;9.85;;;4.70;;
64820;SDS011;51256;55.654;37.264;2022-07-18T13:39:46;10.10;;;4.72;;
64820;SDS011;51256;55.654;37.264;2022-07-18T13:42:11;9.77;;;4.70;;
64820;SDS011;51256;55.654;37.264;2022-07-18T13:44:37;9.18;;;4.97;;
64820;SDS011;51256;55.654;37.264;2022-07-18T13:47:02;8.38;;;4.80;;
64820;SDS011;51256;55.654;37.264;2022-07-18T13:49:28;10.00;;;5.45;;
64820;SDS011;51256;55.654;37.264;2022-07-18T13:51:53;8.80;;;4.78;;
64820;SDS011;51256;55.654;37.264;2022-07-18T13:54:19;9.60;;;4.43;;
64820;SDS011;51256;55.654;37.264;2022-07-18T13:56:45;8.63;;;4.03;;
64820;SDS011;51256;55.654;37.264;2022-07-18T13:59:11;6.80;;;4.25;;
64820;SDS011;51256;55.654;37.264;2022-07-18T14:01:36;6.75;;;3.85;;
64820;SDS011;51256;55.654;37.264;2022-07-18T14:04:02;5.63;;;3.40;;
64820;SDS011;51256;55.654;37.264;2022-07-18T14:06:28;10.63;;;3.40;;
64820;SDS011;51256;55.654;37.264;2022-07-18T14:08:53;3.92;;;2.50;;
64820;SDS011;51256;55.654;37.264;2022-07-18T14:11:19;3.90;;;2.47;;
64820;SDS011;51256;55.654;37.264;2022-07-18T14:13:44;4.40;;;2.80;;
64820;SDS011;51256;55.654;37.264;2022-07-18T14:16:12;5.65;;;3.53;;
64820;SDS011;51256;55.654;37.264;2022-07-18T14:18:37;4.35;;;2.78;;
64820;SDS011;51256;55.654;37.264;2022-07-18T14:21:03;4.75;;;2.90;;
64820;SDS011;51256;55.654;37.264;2022-07-18T14:23:29;5.72;;;3.03;;
64820;SDS011;51256;55.654;37.264;2022-07-18T14:25:54;9.07;;;4.38;;
64820;SDS011;51256;55.654;37.264;2022-07-18T14:28:20;7.78;;;3.80;;
64820;SDS011;51256;55.654;37.264;2022-07-18T14:30:45;6.00;;;3.90;;
64820;SDS011;51256;55.654;37.264;2022-07-18T14:33:11;8.30;;;3.60;;
64820;SDS011;51256;55.654;37.264;2022-07-18T14:35:37;6.95;;;3.67;;
64820;SDS011;51256;55.654;37.264;2022-07-18T14:38:03;8.30;;;3.72;;
64820;SDS011;51256;55.654;37.264;2022-07-18T14:40:29;8.48;;;3.40;;
64820;SDS011;51256;55.654;37.264;2022-07-18T14:42:54;6.85;;;2.97;;
64820;SDS011;51256;55.654;37.264;2022-07-18T14:45:20;8.15;;;3.00;;
64820;SDS011;51256;55.654;37.264;2022-07-18T14:47:45;5.57;;;3.20;;
64820;SDS011;51256;55.654;37.264;2022-07-18T14:50:11;5.32;;;2.90;;
64820;SDS011;51256;55.654;37.264;2022-07-18T14:52:37;5.63;;;3.25;;
64820;SDS011;51256;55.654;37.264;2022-07-18T14:55:06;4.53;;;2.58;;
64820;SDS011;51256;55.654;37.264;2022-07-18T14:57:32;4.80;;;2.70;;
64820;SDS011;51256;55.654;37.264;2022-07-18T14:59:58;5.93;;;2.90;;
64820;SDS011;51256;55.654;37.264;2022-07-18T15:02:24;15.13;;;3.42;;
64820;SDS011;51256;55.654;37.264;2022-07-18T15:04:49;8.23;;;2.40;;